Time;durP1;ratioP1;P1;durP2;ratioP2;P2;SDS_P1;SDS_P2;PMS_P1;PMS_P2;Temp;Humidity;BMP_temperature;BMP_pressure;BME280_temperature;BME280_humidity;BME280_pressure;Samples;Min_cycle;Max_cycle;Signal;HPM_P1;HPM_P2
2021/05/22 00:02:22;;;;;;;7.88;7.28;;;8.30;76.20;;;;;;5211022;28;20111;-68
2021/05/22 00:04:54;;;;;;;8.02;7.43;;;8.20;76.20;;;;;;5213194;28;20055;-68
2021/05/22 00:07:26;;;;;;;7.75;7.15;;;8.20;75.80;;;;;;5208999;28;20041;-68
2021/05/22 00:09:58;;;;;;;7.80;7.20;;;8.20;75.50;;;;;;5212545;28;20045;-68
2021/05/22 00:12:30;;;;;;;8.00;7.30;;;8.20;75.30;;;;;;5207692;28;20068;-68
2021/05/22 00:15:06;;;;;;;7.70;7.10;;;8.10;75.80;;;;;;5209720;28;20052;-68
2021/05/22 00:17:38;;;;;;;7.70;7.10;;;8.10;75.90;;;;;;5206315;28;20095;-68
2021/05/22 00:20:11;;;;;;;7.85;7.10;;;8.00;76.10;;;;;;5208924;28;20053;-68
2021/05/22 00:22:45;;;;;;;7.57;6.97;;;7.90;76.80;;;;;;5206505;28;20500;-68
2021/05/22 00:25:17;;;;;;;8.20;7.47;;;7.90;76.40;;;;;;5207665;28;20049;-69
2021/05/22 00:27:48;;;;;;;7.75;7.15;;;7.90;76.20;;;;;;5210201;28;20079;-68
2021/05/22 00:30:21;;;;;;;8.00;7.40;;;7.90;76.30;;;;;;5208890;28;20032;-68
2021/05/22 00:32:53;;;;;;;7.97;7.35;;;7.80;75.70;;;;;;5211038;28;20045;-67
2021/05/22 00:35:25;;;;;;;7.80;7.20;;;7.70;76.00;;;;;;5209735;28;20561;-68
2021/05/22 00:37:57;;;;;;;7.90;7.30;;;7.70;75.90;;;;;;5207196;28;20056;-68
2021/05/22 00:40:29;;;;;;;7.80;7.20;;;7.60;76.10;;;;;;5206931;28;20754;-68
2021/05/22 00:43:01;;;;;;;7.85;7.18;;;7.60;76.50;;;;;;5207373;28;20126;-67
2021/05/22 00:45:35;;;;;;;8.10;7.30;;;7.60;77.20;;;;;;5208740;28;20086;-68
2021/05/22 00:48:07;;;;;;;7.50;6.90;;;7.60;77.50;;;;;;5194623;28;20115;-68
2021/05/22 00:50:43;;;;;;;7.60;7.00;;;7.60;77.00;;;;;;5206927;28;20543;-67
2021/05/22 00:53:15;;;;;;;7.35;6.75;;;7.50;76.60;;;;;;5207234;28;20052;-69
2021/05/22 00:55:47;;;;;;;7.30;6.70;;;7.40;76.00;;;;;;5206473;28;20499;-68
2021/05/22 00:58:19;;;;;;;7.38;6.78;;;7.30;77.20;;;;;;5209552;28;20637;-68
2021/05/22 01:00:52;;;;;;;7.97;7.28;;;7.40;77.30;;;;;;5208702;28;20044;-69
2021/05/22 01:03:28;;;;;;;8.30;7.70;;;7.40;77.50;;;;;;5208316;28;20140;-68
2021/05/22 01:06:15;;;;;;;7.80;7.20;;;7.30;77.10;;;;;;5192187;28;20084;-68
2021/05/22 01:08:57;;;;;;;7.80;7.10;;;7.30;77.30;;;;;;5208486;28;20586;-68
2021/05/22 01:11:55;;;;;;;7.70;7.10;;;7.20;77.10;;;;;;5207587;28;20045;-68
2021/05/22 01:14:36;;;;;;;7.80;7.20;;;7.20;77.90;;;;;;5211847;28;20049;-68
2021/05/22 01:17:11;;;;;;;7.80;7.20;;;7.10;77.70;;;;;;5207345;28;20065;-68
2021/05/22 01:19:49;;;;;;;7.55;6.95;;;7.10;77.90;;;;;;5210064;28;20048;-69
2021/05/22 01:22:26;;;;;;;7.47;6.88;;;7.00;78.10;;;;;;5207114;28;20465;-68
2021/05/22 01:25:24;;;;;;;7.70;7.00;;;7.10;78.30;;;;;;5209269;28;20043;-68
2021/05/22 01:27:58;;;;;;;7.47;6.88;;;7.10;78.10;;;;;;5210693;28;20500;-67
2021/05/22 01:30:31;;;;;;;7.57;6.95;;;7.00;78.40;;;;;;5208072;28;20099;-69
2021/05/22 01:33:04;;;;;;;8.02;7.43;;;7.00;78.80;;;;;;5206460;28;20496;-69
2021/05/22 01:35:38;;;;;;;7.57;6.97;;;6.90;78.50;;;;;;5206825;28;20135;-69
2021/05/22 01:38:10;;;;;;;7.63;7.03;;;6.90;79.20;;;;;;5208081;28;20114;-69
2021/05/22 01:40:42;;;;;;;7.50;6.90;;;6.90;79.10;;;;;;5197353;28;20413;-68
2021/05/22 01:43:14;;;;;;;7.90;7.25;;;6.90;79.00;;;;;;5205620;28;20076;-69
2021/05/22 01:45:49;;;;;;;7.60;7.00;;;6.90;78.70;;;;;;5208686;28;20552;-69
2021/05/22 01:48:26;;;;;;;7.38;6.78;;;6.90;78.50;;;;;;5208709;28;20049;-69
2021/05/22 01:51:04;;;;;;;7.55;6.95;;;6.90;78.80;;;;;;5208898;28;20042;-69
2021/05/22 01:53:41;;;;;;;7.70;7.10;;;6.90;78.70;;;;;;5206581;28;20678;-68
2021/05/22 01:56:14;;;;;;;7.60;7.00;;;6.90;78.80;;;;;;5204870;28;20413;-68
2021/05/22 01:58:47;;;;;;;8.00;7.40;;;6.90;78.50;;;;;;5207659;28;20061;-68
2021/05/22 02:01:19;;;;;;;7.80;7.20;;;6.90;78.60;;;;;;5206216;28;20651;-69
2021/05/22 02:03:53;;;;;;;7.90;7.30;;;6.80;78.50;;;;;;5208315;28;20042;-68
2021/05/22 02:06:34;;;;;;;7.90;7.30;;;6.80;78.80;;;;;;5212855;28;20107;-68
2021/05/22 02:09:07;;;;;;;7.75;7.15;;;6.70;78.80;;;;;;5211272;28;20053;-68
2021/05/22 02:11:42;;;;;;;8.00;7.30;;;6.80;79.30;;;;;;5211391;28;20516;-68
2021/05/22 02:14:25;;;;;;;7.65;7.05;;;6.80;78.20;;;;;;5195934;28;20060;-69
2021/05/22 02:16:58;;;;;;;7.82;7.22;;;6.80;78.90;;;;;;5193524;28;20115;-68
2021/05/22 02:19:31;;;;;;;8.00;7.40;;;6.80;78.70;;;;;;5212016;28;20067;-68
2021/05/22 02:22:06;;;;;;;7.90;7.30;;;6.90;79.40;;;;;;5209809;28;20046;-68
2021/05/22 02:24:38;;;;;;;8.10;7.50;;;6.90;79.80;;;;;;5210442;28;20057;-68
2021/05/22 02:27:12;;;;;;;7.95;7.35;;;6.90;80.30;;;;;;5209129;28;20053;-68
2021/05/22 02:29:45;;;;;;;8.02;7.43;;;6.80;79.80;;;;;;5194255;28;20494;-68
2021/05/22 02:32:19;;;;;;;7.68;7.07;;;6.90;79.90;;;;;;5208985;28;20554;-68
2021/05/22 02:34:56;;;;;;;7.90;7.30;;;6.90;80.20;;;;;;5212481;28;20522;-68
2021/05/22 02:37:31;;;;;;;8.00;7.40;;;6.90;81.90;;;;;;5208608;28;20164;-68
2021/05/22 02:40:09;;;;;;;8.18;7.57;;;6.80;81.90;;;;;;5210344;28;20470;-68
2021/05/22 02:42:50;;;;;;;8.10;7.40;;;6.70;82.10;;;;;;5211405;28;20068;-69
2021/05/22 02:45:25;;;;;;;7.88;7.28;;;6.70;81.70;;;;;;5208480;28;20033;-68
2021/05/22 02:48:00;;;;;;;8.18;7.53;;;6.70;81.40;;;;;;5192562;28;20447;-67
2021/05/22 02:50:34;;;;;;;8.45;7.80;;;6.70;82.20;;;;;;5214139;28;20052;-68
2021/05/22 02:53:09;;;;;;;8.57;7.88;;;6.60;84.10;;;;;;5191858;28;20099;-69
2021/05/22 02:55:42;;;;;;;8.80;8.00;;;6.50;83.80;;;;;;5213414;28;20069;-68
2021/05/22 02:58:16;;;;;;;8.30;7.50;;;6.50;82.90;;;;;;5211475;28;20076;-68
2021/05/22 03:00:48;;;;;;;8.40;7.70;;;6.60;82.50;;;;;;5210371;28;20048;-68
2021/05/22 03:03:22;;;;;;;8.63;7.93;;;6.60;82.40;;;;;;5209591;28;20076;-67
2021/05/22 03:05:53;;;;;;;8.70;8.00;;;6.70;82.60;;;;;;5212416;28;20037;-69
2021/05/22 03:08:27;;;;;;;8.20;7.60;;;6.80;82.10;;;;;;5208718;28;20099;-69
2021/05/22 03:11:01;;;;;;;8.57;7.88;;;6.80;81.70;;;;;;5210226;28;20091;-69
2021/05/22 03:13:33;;;;;;;8.43;7.72;;;6.80;82.40;;;;;;5209899;28;20124;-69
2021/05/22 03:16:05;;;;;;;8.10;7.50;;;6.90;81.60;;;;;;5199816;28;20049;-69
2021/05/22 03:18:37;;;;;;;8.73;7.95;;;6.90;81.50;;;;;;5210101;28;20045;-68
2021/05/22 03:21:11;;;;;;;8.57;7.88;;;6.90;81.30;;;;;;5208658;28;20109;-68
2021/05/22 03:23:43;;;;;;;8.55;7.80;;;6.90;81.60;;;;;;5209842;28;20045;-69
2021/05/22 03:26:15;;;;;;;7.88;7.28;;;6.80;82.80;;;;;;5209208;28;20053;-69
2021/05/22 03:28:47;;;;;;;7.85;7.25;;;6.80;82.50;;;;;;5209988;28;20049;-69
2021/05/22 03:31:19;;;;;;;8.40;7.70;;;6.80;82.30;;;;;;5208490;28;20056;-68
2021/05/22 03:33:51;;;;;;;8.20;7.50;;;6.90;82.00;;;;;;5200898;28;20041;-68
2021/05/22 03:36:22;;;;;;;8.40;7.80;;;6.90;81.50;;;;;;5210373;28;20049;-68
2021/05/22 03:38:54;;;;;;;8.10;7.50;;;7.00;81.70;;;;;;5208223;28;20038;-68
2021/05/22 03:41:26;;;;;;;7.90;7.30;;;7.00;80.80;;;;;;5208590;28;20095;-68
2021/05/22 03:43:58;;;;;;;7.90;7.30;;;7.00;81.00;;;;;;5211076;28;20045;-68
2021/05/22 03:46:30;;;;;;;8.00;7.30;;;7.10;81.20;;;;;;5208763;28;20052;-68
2021/05/22 03:49:03;;;;;;;7.70;7.00;;;7.10;81.30;;;;;;5209336;28;20569;-68
2021/05/22 03:51:35;;;;;;;7.80;7.20;;;7.10;81.50;;;;;;5207922;28;20760;-68
2021/05/22 03:54:07;;;;;;;7.70;7.10;;;7.00;81.30;;;;;;5214448;28;20067;-67
2021/05/22 03:56:39;;;;;;;7.60;7.00;;;7.00;81.40;;;;;;5211271;28;20136;-68
2021/05/22 03:59:11;;;;;;;7.95;7.35;;;7.00;81.60;;;;;;5209717;28;20044;-68
2021/05/22 04:01:43;;;;;;;8.70;8.00;;;7.00;81.40;;;;;;5206932;28;20452;-68
2021/05/22 04:04:15;;;;;;;8.30;7.70;;;6.90;81.60;;;;;;5209467;28;20115;-67
2021/05/22 04:06:47;;;;;;;8.15;7.55;;;6.90;81.80;;;;;;5211122;28;20127;-68
2021/05/22 04:09:19;;;;;;;8.60;7.90;;;6.90;82.00;;;;;;5210344;28;20091;-68
2021/05/22 04:11:50;;;;;;;8.38;7.68;;;7.00;81.60;;;;;;5205881;28;20143;-68
2021/05/22 04:14:22;;;;;;;8.25;7.55;;;7.00;81.40;;;;;;5208447;28;20106;-69
2021/05/22 04:16:54;;;;;;;8.63;7.93;;;7.00;81.30;;;;;;5207327;28;20366;-68
2021/05/22 04:19:26;;;;;;;8.68;7.97;;;7.00;81.50;;;;;;5210676;28;20037;-68
2021/05/22 04:21:58;;;;;;;8.30;7.60;;;7.10;82.10;;;;;;5208087;28;20151;-69
2021/05/22 04:24:30;;;;;;;8.90;8.20;;;7.00;82.00;;;;;;5210126;28;20049;-69
2021/05/22 04:27:02;;;;;;;8.63;7.93;;;7.10;82.00;;;;;;5210685;28;20048;-68
2021/05/22 04:29:34;;;;;;;8.73;8.02;;;7.10;81.80;;;;;;5209692;28;20136;-69
2021/05/22 04:32:06;;;;;;;8.93;8.23;;;7.20;81.60;;;;;;5207298;28;20041;-68
2021/05/22 04:34:38;;;;;;;8.38;7.68;;;7.20;81.50;;;;;;5208444;28;20046;-68
2021/05/22 04:37:10;;;;;;;9.30;8.60;;;7.20;82.60;;;;;;5208904;28;20508;-68
2021/05/22 04:39:42;;;;;;;8.80;8.10;;;7.20;81.90;;;;;;5206556;28;20503;-68
2021/05/22 04:42:14;;;;;;;8.60;7.90;;;7.20;82.00;;;;;;5207576;28;20431;-68
2021/05/22 04:44:47;;;;;;;8.65;7.95;;;7.30;82.40;;;;;;5208629;28;20044;-67
2021/05/22 04:47:18;;;;;;;8.55;7.85;;;7.30;82.10;;;;;;5209458;28;20049;-68
2021/05/22 04:49:51;;;;;;;8.45;7.82;;;7.30;82.10;;;;;;5192091;28;20543;-68
2021/05/22 04:52:23;;;;;;;8.85;8.15;;;7.40;81.90;;;;;;5208464;28;20045;-68
2021/05/22 04:54:56;;;;;;;8.60;7.90;;;7.40;82.40;;;;;;5208099;28;20702;-68
2021/05/22 04:57:28;;;;;;;8.75;8.05;;;7.40;82.20;;;;;;5207541;28;20524;-68
2021/05/22 05:00:00;;;;;;;9.00;8.20;;;7.50;82.20;;;;;;5192801;28;20547;-67
2021/05/22 05:02:32;;;;;;;8.95;8.25;;;7.50;83.40;;;;;;5206008;28;20113;-68
2021/05/22 05:05:04;;;;;;;8.50;7.80;;;7.50;82.70;;;;;;5207248;28;20095;-69
2021/05/22 05:07:40;;;;;;;8.90;8.20;;;7.60;82.50;;;;;;5206396;28;20683;-68
2021/05/22 05:10:12;;;;;;;8.88;8.18;;;7.60;82.00;;;;;;5188836;28;20423;-68
2021/05/22 05:12:45;;;;;;;8.77;8.07;;;7.60;82.40;;;;;;5189801;28;20052;-68
2021/05/22 05:15:17;;;;;;;8.50;7.70;;;7.60;82.60;;;;;;5208301;28;20046;-68
2021/05/22 05:17:49;;;;;;;8.45;7.75;;;7.70;82.20;;;;;;5209837;28;20115;-68
2021/05/22 05:20:21;;;;;;;9.20;8.32;;;7.70;81.70;;;;;;5211364;28;20053;-69
2021/05/22 05:22:52;;;;;;;8.75;8.05;;;7.70;81.50;;;;;;5208986;28;20038;-68
2021/05/22 05:25:24;;;;;;;8.80;8.00;;;7.70;81.80;;;;;;5208446;28;20049;-68
2021/05/22 05:27:56;;;;;;;8.60;7.90;;;7.70;82.10;;;;;;5213262;28;20110;-68
2021/05/22 05:30:28;;;;;;;8.73;8.02;;;7.70;81.60;;;;;;5208790;28;20048;-68
2021/05/22 05:33:00;;;;;;;8.57;7.88;;;7.70;81.80;;;;;;5207214;28;20107;-68
2021/05/22 05:35:32;;;;;;;8.75;8.05;;;7.80;82.10;;;;;;5194721;28;20125;-68
2021/05/22 05:38:04;;;;;;;9.23;8.43;;;7.80;82.10;;;;;;5209344;28;20041;-69
2021/05/22 05:40:37;;;;;;;8.55;7.85;;;7.90;82.20;;;;;;5208732;28;20095;-68
2021/05/22 05:43:10;;;;;;;8.57;7.82;;;7.90;82.40;;;;;;5211370;28;20276;-68
2021/05/22 05:45:42;;;;;;;9.00;8.20;;;7.90;82.40;;;;;;5206755;28;20069;-68
2021/05/22 05:48:14;;;;;;;8.73;7.93;;;7.90;82.20;;;;;;5206457;28;20098;-68
2021/05/22 05:50:46;;;;;;;9.57;8.77;;;7.90;82.20;;;;;;5207842;28;20442;-68
2021/05/22 05:53:19;;;;;;;9.00;8.30;;;7.90;83.30;;;;;;5205288;28;20041;-68
2021/05/22 05:55:50;;;;;;;8.57;7.78;;;7.90;83.00;;;;;;5189752;28;20045;-68
2021/05/22 05:58:22;;;;;;;8.45;7.75;;;7.90;83.10;;;;;;5207470;28;20069;-68
2021/05/22 06:00:54;;;;;;;8.75;8.05;;;8.00;82.70;;;;;;5206331;28;20036;-68
2021/05/22 06:03:30;;;;;;;9.07;8.18;;;8.00;83.30;;;;;;5211726;28;20091;-69
2021/05/22 06:06:04;;;;;;;10.13;9.23;;;8.10;83.20;;;;;;5207533;28;20053;-68
2021/05/22 06:08:36;;;;;;;13.80;12.57;;;8.10;83.60;;;;;;5190550;28;20136;-68
2021/05/22 06:11:11;;;;;;;11.13;10.13;;;8.20;83.90;;;;;;5211073;28;20041;-69
2021/05/22 06:13:43;;;;;;;9.75;8.90;;;8.20;83.40;;;;;;5208682;28;20124;-69
2021/05/22 06:16:22;;;;;;;8.50;7.80;;;8.40;83.00;;;;;;5210583;28;20486;-69
2021/05/22 06:18:54;;;;;;;8.63;7.82;;;8.40;81.70;;;;;;5205459;28;20045;-69
2021/05/22 06:21:26;;;;;;;9.48;8.65;;;8.50;82.00;;;;;;5204663;28;20093;-69
2021/05/22 06:23:58;;;;;;;8.85;8.05;;;8.50;82.60;;;;;;5207166;28;20123;-69
2021/05/22 06:26:30;;;;;;;8.40;7.70;;;8.60;82.40;;;;;;5211980;28;20052;-68
2021/05/22 06:29:03;;;;;;;8.77;8.00;;;8.60;82.00;;;;;;5210353;28;20041;-68
2021/05/22 06:31:35;;;;;;;8.55;7.78;;;8.70;81.60;;;;;;5204619;28;20130;-69
2021/05/22 06:34:06;;;;;;;9.07;8.27;;;8.80;81.60;;;;;;5205329;28;20056;-68
2021/05/22 06:36:39;;;;;;;8.52;7.70;;;8.80;81.40;;;;;;5210538;28;20583;-69
2021/05/22 06:39:11;;;;;;;9.00;8.30;;;8.80;81.80;;;;;;5207134;28;20076;-68
2021/05/22 06:41:43;;;;;;;9.85;9.05;;;8.80;82.20;;;;;;5209064;28;20056;-68
2021/05/22 06:47:16;;;;;;;9.25;8.55;;;8.90;82.00;;;;;;5188339;28;20064;-69
2021/05/22 06:49:48;;;;;;;9.00;8.20;;;9.00;82.00;;;;;;5206360;28;20045;-69
2021/05/22 06:52:20;;;;;;;8.80;8.10;;;9.10;82.10;;;;;;5209429;28;20144;-68
2021/05/22 06:54:52;;;;;;;8.60;7.90;;;9.20;80.00;;;;;;5211149;28;20072;-69
2021/05/22 06:57:23;;;;;;;8.90;8.20;;;9.10;79.10;;;;;;5202987;28;20049;-69
2021/05/22 06:59:55;;;;;;;9.35;8.60;;;9.10;80.70;;;;;;5214648;28;20036;-68
2021/05/22 07:02:27;;;;;;;9.40;8.70;;;9.10;81.10;;;;;;5209779;28;20040;-69
2021/05/22 07:05:00;;;;;;;9.10;8.40;;;9.10;80.10;;;;;;5210722;28;20041;-68
2021/05/22 07:07:32;;;;;;;8.95;8.25;;;9.10;80.70;;;;;;5210944;28;20597;-69
2021/05/22 07:10:06;;;;;;;8.95;8.23;;;9.10;80.10;;;;;;5211934;28;20045;-69
2021/05/22 07:12:38;;;;;;;9.30;8.60;;;9.10;80.10;;;;;;5210791;28;20045;-68
2021/05/22 07:15:11;;;;;;;9.13;8.43;;;9.20;80.50;;;;;;5210062;28;20546;-69
2021/05/22 07:17:43;;;;;;;9.15;8.35;;;9.30;80.30;;;;;;5209893;28;20158;-69
2021/05/22 07:20:15;;;;;;;9.18;8.48;;;9.30;80.40;;;;;;5212470;28;20041;-69
2021/05/22 07:22:50;;;;;;;9.38;8.57;;;9.30;79.60;;;;;;5209952;28;20045;-69
2021/05/22 07:25:23;;;;;;;9.35;8.55;;;9.40;79.60;;;;;;5209709;28;20394;-69
2021/05/22 07:27:56;;;;;;;9.20;8.48;;;9.40;80.00;;;;;;5213396;28;20127;-69
2021/05/22 07:30:28;;;;;;;9.38;8.57;;;9.40;78.70;;;;;;5201179;28;20048;-69
2021/05/22 07:33:01;;;;;;;9.43;8.60;;;9.40;79.30;;;;;;5209675;28;20909;-69
2021/05/22 07:35:33;;;;;;;9.10;8.40;;;9.50;77.50;;;;;;5207907;28;20041;-70
2021/05/22 07:38:04;;;;;;;8.77;8.07;;;9.50;79.00;;;;;;5212200;28;20041;-69
2021/05/22 07:40:37;;;;;;;11.80;10.70;;;9.50;77.80;;;;;;5207325;28;20485;-69
2021/05/22 07:43:09;;;;;;;9.70;8.90;;;9.60;78.90;;;;;;5208102;28;20532;-69
2021/05/22 07:45:41;;;;;;;9.80;8.95;;;9.60;80.10;;;;;;5210559;28;20053;-68
2021/05/22 07:48:14;;;;;;;9.32;8.52;;;9.60;78.90;;;;;;5208696;28;20167;-69
2021/05/22 07:50:46;;;;;;;9.70;8.80;;;9.60;76.60;;;;;;5205767;28;20041;-69
2021/05/22 07:53:18;;;;;;;9.80;8.80;;;9.70;73.70;;;;;;5212730;28;20045;-69
2021/05/22 07:55:50;;;;;;;9.80;8.80;;;9.80;73.50;;;;;;5214990;28;20045;-69
2021/05/22 07:58:22;;;;;;;9.32;8.50;;;9.90;72.20;;;;;;5212375;28;20041;-69
2021/05/22 08:00:54;;;;;;;9.93;9.13;;;9.90;71.00;;;;;;5210408;28;20091;-69
2021/05/22 08:03:25;;;;;;;10.05;9.07;;;9.90;71.70;;;;;;5198817;28;20041;-69
2021/05/22 08:06:17;;;;;;;10.63;9.63;;;10.00;69.10;;;;;;5209582;28;20383;-69
2021/05/22 08:08:49;;;;;;;10.23;9.30;;;10.10;69.20;;;;;;5211832;28;20069;-69
2021/05/22 08:11:21;;;;;;;9.82;8.93;;;10.10;70.40;;;;;;5211079;28;20061;-69
2021/05/22 08:13:53;;;;;;;9.48;8.68;;;10.10;72.20;;;;;;5210551;28;20041;-69
2021/05/22 08:16:25;;;;;;;9.60;8.73;;;10.20;69.50;;;;;;5189238;28;20091;-69
2021/05/22 08:18:57;;;;;;;10.10;9.10;;;10.30;69.90;;;;;;5209206;28;20036;-69
2021/05/22 08:21:28;;;;;;;9.80;9.00;;;10.40;69.20;;;;;;5196187;28;20435;-68
2021/05/22 08:24:01;;;;;;;9.80;8.90;;;10.40;68.90;;;;;;5210291;28;20049;-68
2021/05/22 08:26:34;;;;;;;10.10;9.07;;;10.40;67.50;;;;;;5206563;28;20041;-69
2021/05/22 08:29:26;;;;;;;10.80;9.70;;;10.40;67.40;;;;;;5214751;28;20247;-69
2021/05/22 08:31:58;;;;;;;10.13;9.23;;;10.50;66.90;;;;;;5208523;28;20048;-69
2021/05/22 08:34:30;;;;;;;9.75;8.95;;;10.60;66.60;;;;;;5208892;28;20033;-69
2021/05/22 08:37:01;;;;;;;9.90;8.98;;;10.60;67.50;;;;;;5210356;28;21057;-69
2021/05/22 08:39:33;;;;;;;10.20;9.30;;;10.70;66.70;;;;;;5208442;28;20069;-69
2021/05/22 08:42:06;;;;;;;9.85;8.90;;;10.60;62.90;;;;;;5196943;28;20107;-68
2021/05/22 08:44:39;;;;;;;10.10;9.07;;;10.70;68.00;;;;;;5208352;28;20049;-69
2021/05/22 08:47:11;;;;;;;10.02;9.13;;;10.80;67.30;;;;;;5204255;28;20045;-69
2021/05/22 08:49:43;;;;;;;10.10;9.10;;;10.90;65.10;;;;;;5205319;28;20427;-69
2021/05/22 08:52:19;;;;;;;10.68;9.68;;;11.00;65.60;;;;;;5202024;28;20049;-69
2021/05/22 08:54:51;;;;;;;10.05;9.15;;;10.90;63.00;;;;;;5202875;28;20508;-69
2021/05/22 08:57:23;;;;;;;9.95;8.95;;;11.00;68.70;;;;;;5210900;28;20553;-69
2021/05/22 08:59:55;;;;;;;9.60;8.70;;;11.10;63.60;;;;;;5208478;28;20500;-69
2021/05/22 09:02:27;;;;;;;10.13;9.23;;;11.10;64.90;;;;;;5210117;28;20080;-69
2021/05/22 09:05:18;;;;;;;10.45;9.45;;;11.20;65.20;;;;;;5210536;28;20120;-69
2021/05/22 09:07:52;;;;;;;;;;;11.20;66.20;;;;;;5194785;28;20044;-69
2021/05/22 09:10:35;;;;;;;10.25;9.30;;;11.30;62.60;;;;;;5206263;28;19925;-69
2021/05/22 09:13:09;;;;;;;10.85;9.80;;;11.30;66.10;;;;;;5207366;28;20489;-68
2021/05/22 09:15:43;;;;;;;10.43;9.52;;;11.50;68.00;;;;;;5210553;28;20045;-69
2021/05/22 09:18:21;;;;;;;10.32;9.43;;;11.60;65.60;;;;;;5207930;28;20602;-69
2021/05/22 09:20:55;;;;;;;10.65;9.77;;;11.60;62.00;;;;;;5194183;28;20907;-69
2021/05/22 09:23:33;;;;;;;10.60;9.60;;;11.70;62.50;;;;;;5211983;28;20045;-69
2021/05/22 09:26:13;;;;;;;10.80;9.80;;;11.90;63.40;;;;;;5206594;28;20037;-68
2021/05/22 09:28:51;;;;;;;10.60;9.60;;;11.90;61.30;;;;;;5207631;28;20127;-69
2021/05/22 09:31:27;;;;;;;10.98;10.07;;;11.90;60.20;;;;;;5194302;28;20147;-69
2021/05/22 09:34:00;;;;;;;10.70;9.80;;;12.00;64.60;;;;;;5186824;28;20041;-69
2021/05/22 09:36:46;;;;;;;11.23;10.13;;;12.30;65.80;;;;;;5205380;28;20934;-69
2021/05/22 09:39:18;;;;;;;11.70;10.68;;;12.70;61.60;;;;;;5205689;28;20050;-69
2021/05/22 09:41:50;;;;;;;11.75;10.75;;;13.00;67.70;;;;;;5206756;28;20037;-70
2021/05/22 09:44:25;;;;;;;11.80;10.90;;;13.40;61.30;;;;;;5209860;28;20049;-69
2021/05/22 09:47:00;;;;;;;11.70;10.80;;;13.80;67.70;;;;;;5198977;28;20818;-70
2021/05/22 09:49:34;;;;;;;12.00;11.00;;;14.30;65.40;;;;;;5209047;28;20060;-69
2021/05/22 09:52:13;;;;;;;11.90;10.90;;;14.40;65.00;;;;;;5205359;28;20060;-69
2021/05/22 09:54:58;;;;;;;12.27;11.05;;;14.40;55.50;;;;;;5208387;28;20045;-68
2021/05/22 09:57:34;;;;;;;11.63;10.57;;;14.40;59.10;;;;;;5198737;28;20033;-70
2021/05/22 10:00:15;;;;;;;12.80;11.70;;;14.30;51.70;;;;;;5204963;28;20065;-69
2021/05/22 10:02:50;;;;;;;12.43;10.93;;;14.50;62.40;;;;;;5206096;28;20041;-69
2021/05/22 10:05:29;;;;;;;11.70;10.70;;;14.40;53.00;;;;;;5208842;28;20041;-70
2021/05/22 10:08:04;;;;;;;11.60;10.70;;;14.30;56.20;;;;;;5205168;28;20056;-70
2021/05/22 10:10:42;;;;;;;11.40;10.50;;;14.40;51.80;;;;;;5207040;28;20442;-70
2021/05/22 10:13:16;;;;;;;11.55;10.65;;;14.20;56.80;;;;;;5207873;28;20072;-70
2021/05/22 10:15:50;;;;;;;12.15;11.15;;;14.50;58.30;;;;;;5206609;28;20045;-70
2021/05/22 10:18:26;;;;;;;12.35;11.35;;;14.60;56.30;;;;;;5209622;28;20072;-70
2021/05/22 10:21:04;;;;;;;12.20;11.20;;;14.80;60.30;;;;;;5189058;28;20071;-69
2021/05/22 10:23:36;;;;;;;12.32;11.35;;;15.10;61.20;;;;;;5183780;28;20132;-71
2021/05/22 10:26:11;;;;;;;11.70;10.80;;;15.00;54.90;;;;;;5210012;28;20042;-70
2021/05/22 10:28:43;;;;;;;11.98;10.93;;;15.00;51.30;;;;;;5209739;28;20127;-70
2021/05/22 10:31:15;;;;;;;12.00;11.10;;;15.00;53.00;;;;;;5210324;28;20135;-70
2021/05/22 10:33:47;;;;;;;11.82;10.82;;;14.80;51.70;;;;;;5213902;28;20094;-70
2021/05/22 10:36:46;;;;;;;11.52;10.52;;;14.90;55.20;;;;;;5213762;28;20172;-70
2021/05/22 10:39:41;;;;;;;12.07;10.90;;;14.80;54.60;;;;;;5197445;28;20049;-70
2021/05/22 10:42:22;;;;;;;11.57;10.60;;;14.70;53.40;;;;;;5207971;28;20076;-70
2021/05/22 10:44:55;;;;;;;10.95;10.15;;;14.80;60.00;;;;;;5213088;28;20390;-70
2021/05/22 10:47:29;;;;;;;11.07;10.27;;;14.70;53.70;;;;;;5208348;28;20048;-70
2021/05/22 10:50:04;;;;;;;11.10;10.30;;;14.70;53.40;;;;;;5212626;28;20045;-70
2021/05/22 10:52:37;;;;;;;11.15;10.20;;;14.70;52.70;;;;;;5211485;28;20045;-70
2021/05/22 10:55:13;;;;;;;11.35;10.35;;;14.60;53.10;;;;;;5209148;28;20107;-69
2021/05/22 10:57:45;;;;;;;11.55;10.45;;;14.60;55.80;;;;;;5212169;28;20891;-70
2021/05/22 11:00:21;;;;;;;11.20;10.30;;;14.60;55.10;;;;;;5214838;28;20067;-70
2021/05/22 11:03:08;;;;;;;10.85;10.00;;;14.60;55.40;;;;;;5209550;28;20951;-70
2021/05/22 11:05:41;;;;;;;11.63;10.55;;;14.60;57.00;;;;;;5213411;28;20057;-71
2021/05/22 11:08:13;;;;;;;11.52;10.63;;;14.90;61.80;;;;;;5194464;28;20045;-70
2021/05/22 11:10:58;;;;;;;11.13;10.20;;;14.90;62.00;;;;;;5210393;28;20029;-70
2021/05/22 11:13:30;;;;;;;10.98;10.18;;;14.90;55.00;;;;;;5207245;28;20120;-71
2021/05/22 11:16:05;;;;;;;11.20;10.30;;;14.70;48.70;;;;;;5210677;28;20136;-70
2021/05/22 11:18:37;;;;;;;11.45;10.57;;;14.60;52.50;;;;;;5211779;28;20099;-70
2021/05/22 11:21:20;;;;;;;12.18;11.18;;;14.60;53.30;;;;;;5209550;28;20049;-69
2021/05/22 11:23:59;;;;;;;12.25;11.05;;;14.70;51.50;;;;;;5215366;28;20504;-70
2021/05/22 11:26:49;;;;;;;11.63;10.68;;;14.90;56.60;;;;;;5210811;28;20503;-71
2021/05/22 11:29:44;;;;;;;12.02;11.05;;;14.80;53.80;;;;;;5211873;28;20045;-70
2021/05/22 11:32:53;;;;;;;11.32;10.43;;;14.70;50.00;;;;;;5210041;28;20053;-70
2021/05/22 11:35:29;;;;;;;11.30;10.40;;;14.60;49.60;;;;;;5207668;28;20042;-69
2021/05/22 11:38:11;;;;;;;11.95;10.95;;;14.60;51.10;;;;;;5200775;28;20519;-70
2021/05/22 11:41:01;;;;;;;12.02;11.02;;;14.80;51.60;;;;;;5207337;28;20042;-71
2021/05/22 11:43:41;;;;;;;12.27;11.10;;;15.30;55.80;;;;;;5199657;28;20148;-71
2021/05/22 11:46:16;;;;;;;12.43;11.43;;;15.40;48.80;;;;;;5207559;28;20049;-71
2021/05/22 11:48:53;;;;;;;12.82;11.90;;;15.60;51.00;;;;;;5211722;28;20041;-71
2021/05/22 11:51:32;;;;;;;11.82;10.82;;;15.80;48.00;;;;;;5209933;28;20080;-70
2021/05/22 11:54:07;;;;;;;11.80;10.90;;;15.90;47.70;;;;;;5195075;28;20094;-70
2021/05/22 11:56:40;;;;;;;12.40;11.50;;;16.00;52.40;;;;;;5210206;28;20049;-70
2021/05/22 11:59:15;;;;;;;12.70;11.73;;;16.30;44.90;;;;;;5211009;28;20125;-69
2021/05/22 12:01:48;;;;;;;12.55;11.60;;;16.30;44.00;;;;;;5207212;28;20042;-70
2021/05/22 12:04:20;;;;;;;12.48;11.48;;;16.50;48.50;;;;;;5209979;28;20076;-70
2021/05/22 12:06:52;;;;;;;12.32;11.30;;;16.70;48.50;;;;;;5209102;28;20045;-70
2021/05/22 12:09:24;;;;;;;12.30;11.18;;;16.60;43.70;;;;;;5207736;28;20061;-70
2021/05/22 12:12:04;;;;;;;12.23;11.15;;;16.70;44.90;;;;;;5206423;28;20164;-70
2021/05/22 12:14:47;;;;;;;12.40;11.40;;;16.70;47.80;;;;;;5207747;28;20110;-71
2021/05/22 12:17:20;;;;;;;12.70;11.52;;;16.80;42.40;;;;;;5191863;28;20048;-71
2021/05/22 12:19:55;;;;;;;12.18;11.27;;;16.90;42.20;;;;;;5208521;28;20496;-71
2021/05/22 12:22:28;;;;;;;12.43;11.45;;;17.00;44.50;;;;;;5205580;28;20124;-71
2021/05/22 12:25:00;;;;;;;12.70;11.70;;;17.00;41.60;;;;;;5210684;28;20033;-71
2021/05/22 12:27:35;;;;;;;12.40;11.50;;;17.10;42.50;;;;;;5210324;28;20476;-71
2021/05/22 12:30:08;;;;;;;12.52;11.52;;;17.10;41.70;;;;;;5209421;28;20052;-71
2021/05/22 12:32:43;;;;;;;12.88;11.88;;;17.30;40.90;;;;;;5206599;28;20110;-71
2021/05/22 12:35:14;;;;;;;12.52;11.60;;;17.40;39.80;;;;;;5209888;28;20091;-71
2021/05/22 12:37:51;;;;;;;12.52;11.48;;;17.40;44.90;;;;;;5193763;28;20049;-71
2021/05/22 12:40:23;;;;;;;12.57;11.48;;;17.50;39.10;;;;;;5208649;28;20047;-71
2021/05/22 12:42:55;;;;;;;12.75;11.85;;;17.60;45.70;;;;;;5209029;28;20390;-71
2021/05/22 12:45:34;;;;;;;13.10;12.10;;;17.90;42.80;;;;;;5209887;28;20079;-70
2021/05/22 12:48:21;;;;;;;13.00;12.00;;;18.00;44.90;;;;;;5207231;28;20049;-71
2021/05/22 12:50:53;;;;;;;12.57;11.68;;;18.30;42.20;;;;;;5208861;28;20085;-71
2021/05/22 12:53:29;;;;;;;12.90;11.90;;;18.20;40.90;;;;;;5208354;28;20120;-71
2021/05/22 12:56:06;;;;;;;13.02;12.02;;;18.30;43.90;;;;;;5205595;28;20045;-71
2021/05/22 12:58:38;;;;;;;13.15;12.15;;;18.40;39.30;;;;;;5206784;28;20475;-71
2021/05/22 13:01:19;;;;;;;13.70;12.70;;;18.40;39.80;;;;;;5208879;28;20071;-70
2021/05/22 13:03:51;;;;;;;13.68;12.68;;;18.30;37.40;;;;;;5209695;28;20049;-71
2021/05/22 13:06:28;;;;;;;14.43;13.32;;;18.40;43.30;;;;;;5205707;28;20061;-71
2021/05/22 13:09:09;;;;;;;13.48;12.48;;;18.60;39.80;;;;;;5210626;28;20049;-71
2021/05/22 13:11:56;;;;;;;13.45;12.45;;;18.50;40.90;;;;;;5208263;28;20550;-71
2021/05/22 13:14:43;;;;;;;12.85;11.95;;;18.70;42.20;;;;;;5208704;28;20052;-71
2021/05/22 13:17:15;;;;;;;13.15;12.15;;;18.80;42.10;;;;;;5211098;28;20060;-72
2021/05/22 13:19:49;;;;;;;13.48;12.32;;;18.90;44.70;;;;;;5193303;28;20037;-71
2021/05/22 13:22:33;;;;;;;13.23;12.27;;;19.00;42.90;;;;;;5192771;28;20080;-71
2021/05/22 13:25:05;;;;;;;13.23;12.23;;;19.10;42.70;;;;;;5213095;28;20710;-71
2021/05/22 13:27:36;;;;;;;13.93;12.93;;;19.20;44.20;;;;;;5210465;28;20508;-71